createdAt,value
2018-03-21T00:01:42.430Z,78.00
2018-03-21T00:04:09.983Z,78.10
2018-03-21T00:06:37.513Z,78.30
2018-03-21T00:09:05.042Z,78.50
2018-03-21T00:11:32.610Z,78.50
2018-03-21T00:14:00.149Z,78.40
2018-03-21T00:16:27.698Z,78.50
2018-03-21T00:18:55.239Z,78.10
2018-03-21T00:21:22.805Z,78.40
2018-03-21T00:23:50.368Z,78.60
2018-03-21T00:26:17.903Z,78.90
2018-03-21T00:28:46.201Z,78.90
2018-03-21T00:31:13.849Z,78.90
2018-03-21T00:33:41.390Z,79.00
2018-03-21T00:36:09.700Z,78.70
2018-03-21T00:38:37.228Z,78.60
2018-03-21T00:41:04.916Z,79.00
2018-03-21T00:43:32.439Z,79.00
2018-03-21T00:46:00.839Z,79.20
2018-03-21T00:48:28.369Z,79.20
2018-03-21T00:50:55.942Z,79.50
2018-03-21T00:53:23.494Z,79.20
2018-03-21T00:55:51.102Z,78.90
2018-03-21T00:58:18.672Z,79.10
2018-03-21T01:00:46.405Z,79.20
2018-03-21T01:03:13.941Z,79.80
2018-03-21T01:05:42.261Z,80.20
2018-03-21T01:08:09.794Z,80.20
2018-03-21T01:10:37.348Z,80.60
2018-03-21T01:13:05.626Z,80.20
2018-03-21T01:15:33.209Z,80.10
2018-03-21T01:18:00.765Z,80.20
2018-03-21T01:20:28.473Z,80.10
2018-03-21T01:22:56.079Z,80.20
2018-03-21T01:25:23.834Z,80.30
2018-03-21T01:27:51.494Z,80.30
2018-03-21T01:30:19.046Z,80.50
2018-03-21T01:32:47.508Z,81.40
2018-03-21T01:35:15.926Z,81.50
2018-03-21T01:37:43.466Z,81.40
2018-03-21T01:40:11.059Z,81.20
2018-03-21T01:42:38.696Z,81.50
2018-03-21T01:45:06.249Z,82.60
2018-03-21T01:47:33.790Z,81.80
2018-03-21T01:50:02.118Z,81.70
2018-03-21T01:52:29.783Z,81.70
2018-03-21T01:54:57.312Z,82.10
2018-03-21T01:57:25.085Z,82.20
2018-03-21T01:59:52.741Z,82.20
2018-03-21T02:02:20.282Z,82.30
2018-03-21T02:04:48.588Z,82.80
2018-03-21T02:07:16.148Z,82.80
2018-03-21T02:09:43.680Z,82.80
2018-03-21T02:12:11.969Z,82.50
2018-03-21T02:14:40.016Z,82.50
2018-03-21T02:17:08.314Z,82.50
2018-03-21T02:19:35.978Z,82.40
2018-03-21T02:22:03.546Z,82.80
2018-03-21T02:24:31.071Z,83.10
2018-03-21T02:26:59.371Z,83.10
2018-03-21T02:29:27.149Z,83.00
2018-03-21T02:31:54.689Z,83.30
2018-03-21T02:34:22.254Z,83.40
2018-03-21T02:36:49.790Z,83.50
2018-03-21T02:39:18.081Z,83.90
2018-03-21T02:41:45.671Z,84.10
2018-03-21T02:44:13.205Z,84.20
2018-03-21T02:46:40.768Z,84.70
2018-03-21T02:49:08.316Z,84.60
2018-03-21T02:51:35.849Z,84.60
2018-03-21T02:54:04.201Z,85.40
2018-03-21T02:56:31.770Z,85.40
2018-03-21T02:58:59.390Z,86.50
2018-03-21T03:01:26.922Z,88.00
2018-03-21T03:03:54.609Z,88.70
2018-03-21T03:06:22.260Z,89.70
2018-03-21T03:08:49.794Z,90.10
2018-03-21T03:11:18.168Z,90.30
2018-03-21T03:13:45.770Z,90.20
2018-03-21T03:16:13.595Z,90.80
2018-03-21T03:18:42.042Z,91.10
2018-03-21T03:21:09.612Z,91.00
2018-03-21T03:23:38.652Z,91.30
2018-03-21T03:26:06.415Z,91.20
2018-03-21T03:28:33.944Z,91.70
2018-03-21T03:31:02.269Z,91.30
2018-03-21T03:33:29.808Z,91.30
2018-03-21T03:35:57.349Z,91.00
2018-03-21T03:38:25.662Z,91.00
2018-03-21T03:40:53.483Z,91.00
2018-03-21T03:43:21.790Z,91.40
2018-03-21T03:45:49.538Z,91.50
2018-03-21T03:48:17.191Z,91.30
2018-03-21T03:50:44.891Z,91.50
2018-03-21T03:53:12.530Z,91.20
2018-03-21T03:55:40.072Z,91.60
2018-03-21T03:58:08.378Z,91.50
2018-03-21T04:00:35.895Z,91.50
2018-03-21T04:03:03.464Z,91.60
2018-03-21T04:05:31.040Z,91.30
2018-03-21T04:07:58.643Z,91.70
2018-03-21T04:10:26.183Z,92.20
2018-03-21T04:12:53.946Z,92.00
2018-03-21T04:15:21.469Z,92.20
2018-03-21T04:17:49.031Z,92.40
2018-03-21T04:20:16.627Z,92.50
2018-03-21T04:22:44.181Z,92.50
2018-03-21T04:25:11.733Z,92.80
2018-03-21T04:27:39.268Z,92.50
2018-03-21T04:30:07.695Z,92.60
2018-03-21T04:32:35.215Z,92.60
2018-03-21T04:35:02.759Z,93.00
2018-03-21T04:37:30.328Z,92.60
2018-03-21T04:39:58.007Z,92.60
2018-03-21T04:42:25.639Z,93.10
2018-03-21T04:44:53.966Z,92.70
2018-03-21T04:47:21.551Z,92.70
2018-03-21T04:49:49.078Z,92.70
2018-03-21T04:52:16.813Z,92.90
2018-03-21T04:54:44.328Z,93.00
2018-03-21T04:57:11.962Z,92.90
2018-03-21T04:59:39.499Z,93.10
2018-03-21T05:02:07.052Z,93.30
2018-03-21T05:04:34.797Z,93.40
2018-03-21T05:07:03.220Z,93.40
2018-03-21T05:09:30.780Z,93.40
2018-03-21T05:11:58.303Z,93.70
2018-03-21T05:14:25.870Z,93.90
2018-03-21T05:16:53.523Z,93.70
2018-03-21T05:19:21.806Z,93.90
2018-03-21T05:21:49.412Z,94.00
2018-03-21T05:24:16.999Z,94.00
2018-03-21T05:26:44.684Z,93.90
2018-03-21T05:29:12.211Z,94.00
2018-03-21T05:31:39.768Z,94.10
2018-03-21T05:34:07.545Z,94.00
2018-03-21T05:36:35.836Z,94.20
2018-03-21T05:39:03.387Z,94.10
2018-03-21T05:41:30.968Z,94.20
2018-03-21T05:43:58.724Z,94.50
2018-03-21T05:46:26.294Z,94.50
2018-03-21T05:48:53.831Z,94.70
2018-03-21T05:51:22.147Z,94.90
2018-03-21T05:53:49.884Z,94.90
2018-03-21T05:56:17.596Z,94.90
2018-03-21T05:58:45.148Z,94.90
2018-03-21T06:01:12.686Z,95.30
2018-03-21T06:03:40.221Z,95.30
2018-03-21T06:06:08.014Z,95.20
2018-03-21T06:08:35.558Z,95.20
2018-03-21T06:11:03.336Z,95.00
2018-03-21T06:13:30.974Z,95.10
2018-03-21T06:15:58.519Z,95.10
2018-03-21T06:18:26.947Z,95.20
2018-03-21T06:20:54.567Z,95.20
2018-03-21T06:23:22.127Z,95.30
2018-03-21T06:25:49.666Z,95.60
2018-03-21T06:28:17.317Z,95.40
2018-03-21T06:30:44.926Z,95.60
2018-03-21T06:33:12.450Z,95.60
2018-03-21T06:35:40.009Z,95.60
2018-03-21T06:38:08.545Z,95.60
2018-03-21T06:40:36.130Z,95.60
2018-03-21T06:43:04.441Z,95.50
2018-03-21T06:45:31.989Z,95.50
2018-03-21T06:47:59.539Z,95.60
2018-03-21T06:50:27.866Z,95.30
2018-03-21T06:52:55.472Z,95.30
2018-03-21T06:55:23.024Z,95.30
2018-03-21T06:57:50.660Z,95.30
2018-03-21T07:00:18.180Z,95.40
2018-03-21T07:02:46.063Z,95.50
2018-03-21T07:05:13.651Z,95.40
2018-03-21T07:07:41.177Z,95.50
2018-03-21T07:10:08.735Z,95.80
2018-03-21T07:12:36.403Z,95.80
2018-03-21T07:15:15.849Z,95.80
2018-03-21T07:17:43.573Z,95.80
2018-03-21T07:20:11.871Z,95.70
2018-03-21T07:22:39.399Z,95.70
2018-03-21T07:25:07.004Z,95.90
2018-03-21T07:27:34.784Z,95.80
2018-03-21T07:30:02.403Z,95.70
2018-03-21T07:32:29.961Z,95.60
2018-03-21T07:34:57.479Z,95.40
2018-03-21T07:37:25.025Z,95.40
2018-03-21T07:39:52.737Z,95.30
2018-03-21T07:42:21.044Z,95.30
2018-03-21T07:44:48.640Z,95.30
2018-03-21T07:47:16.239Z,95.20
2018-03-21T07:49:43.782Z,95.10
2018-03-21T07:52:12.100Z,95.00
2018-03-21T07:54:39.649Z,95.00
2018-03-21T07:57:07.192Z,94.90
2018-03-21T07:59:34.775Z,95.00
2018-03-21T08:02:02.325Z,95.10
2018-03-21T08:04:32.644Z,95.10
2018-03-21T08:07:00.183Z,95.20
2018-03-21T08:09:27.841Z,95.10
2018-03-21T08:11:55.567Z,95.00
2018-03-21T08:14:23.111Z,95.20
2018-03-21T08:16:50.645Z,95.40
2018-03-21T08:19:18.206Z,95.30
2018-03-21T08:21:45.720Z,95.20
2018-03-21T08:24:13.391Z,95.10
2018-03-21T08:26:40.981Z,95.20
2018-03-21T08:29:08.584Z,95.20
2018-03-21T08:31:36.224Z,95.10
2018-03-21T08:34:03.873Z,95.30
2018-03-21T08:36:31.420Z,95.00
2018-03-21T08:38:58.985Z,95.20
2018-03-21T08:41:26.521Z,95.00
2018-03-21T08:43:54.069Z,95.30
2018-03-21T08:46:21.612Z,95.30
2018-03-21T08:48:49.218Z,95.10
2018-03-21T08:51:16.824Z,95.20
2018-03-21T08:53:44.451Z,95.20
2018-03-21T08:56:11.985Z,95.10
2018-03-21T08:58:39.535Z,95.20
2018-03-21T09:01:07.821Z,95.10
2018-03-21T09:03:35.335Z,95.10
2018-03-21T09:06:02.883Z,95.10
2018-03-21T09:08:31.381Z,95.20
2018-03-21T09:10:58.969Z,95.40
2018-03-21T09:13:26.673Z,95.50
2018-03-21T09:15:54.238Z,95.20
2018-03-21T09:18:21.942Z,95.00
2018-03-21T09:20:49.479Z,95.20
2018-03-21T09:23:17.018Z,95.50
2018-03-21T09:25:44.826Z,95.10
2018-03-21T09:28:13.118Z,95.30
2018-03-21T09:30:40.878Z,95.30
2018-03-21T09:33:08.563Z,94.90
2018-03-21T09:35:36.086Z,95.10
2018-03-21T09:38:04.375Z,95.20
2018-03-21T09:40:31.916Z,95.10
2018-03-21T09:42:59.440Z,95.20
2018-03-21T09:45:27.001Z,95.00
2018-03-21T09:47:54.552Z,94.80
2018-03-21T09:50:22.190Z,94.70
2018-03-21T09:52:49.731Z,94.40
2018-03-21T09:55:17.274Z,94.30
2018-03-21T09:57:44.811Z,94.00
2018-03-21T10:00:12.340Z,93.90
2018-03-21T10:02:40.296Z,93.80
2018-03-21T10:05:07.839Z,93.90
2018-03-21T10:07:35.413Z,93.50
2018-03-21T10:10:03.127Z,93.30
2018-03-21T10:12:30.709Z,93.40
2018-03-21T10:14:58.359Z,93.10
2018-03-21T10:17:25.934Z,92.90
2018-03-21T10:19:54.215Z,92.40
2018-03-21T10:22:21.880Z,92.40
2018-03-21T10:24:49.415Z,92.20
2018-03-21T10:27:16.988Z,91.70
2018-03-21T10:29:44.553Z,91.40
2018-03-21T10:32:12.091Z,91.40
2018-03-21T10:34:40.396Z,90.90
2018-03-21T10:37:07.962Z,90.90
2018-03-21T10:39:35.479Z,90.80
2018-03-21T10:42:03.769Z,90.80
2018-03-21T10:44:32.089Z,90.60
2018-03-21T10:46:59.641Z,90.60
2018-03-21T10:49:27.293Z,90.00
2018-03-21T10:51:54.815Z,90.20
2018-03-21T10:54:23.149Z,89.60
2018-03-21T10:56:50.873Z,89.40
2018-03-21T10:59:18.456Z,89.60
2018-03-21T11:01:45.991Z,89.90
2018-03-21T11:04:13.586Z,89.50
2018-03-21T11:06:41.127Z,89.30
2018-03-21T11:09:08.774Z,88.90
2018-03-21T11:11:36.443Z,88.30
2018-03-21T11:14:04.816Z,86.60
2018-03-21T11:16:32.331Z,87.70
2018-03-21T11:19:00.084Z,87.00
2018-03-21T11:21:27.749Z,86.40
2018-03-21T11:23:55.530Z,86.50
2018-03-21T11:26:23.138Z,85.90
2018-03-21T11:28:50.904Z,85.10
2018-03-21T11:31:18.646Z,85.20
2018-03-21T11:33:46.159Z,84.50
2018-03-21T11:36:13.700Z,84.60
2018-03-21T11:38:41.222Z,83.80
2018-03-21T11:41:08.787Z,83.80
2018-03-21T11:43:36.321Z,83.50
2018-03-21T11:46:04.806Z,82.60
2018-03-21T11:48:33.129Z,82.40
2018-03-21T11:51:00.656Z,82.40
2018-03-21T11:53:28.187Z,81.70
2018-03-21T11:55:56.498Z,82.20
2018-03-21T11:58:24.215Z,82.20
2018-03-21T12:00:51.784Z,81.70
2018-03-21T12:03:20.115Z,82.00
2018-03-21T12:05:47.652Z,82.00
2018-03-21T12:08:15.186Z,81.90
2018-03-21T12:10:43.478Z,81.60
2018-03-21T12:13:11.080Z,81.60
2018-03-21T12:15:38.644Z,82.00
2018-03-21T12:18:06.201Z,81.40
2018-03-21T12:20:33.847Z,81.60
2018-03-21T12:23:01.383Z,80.90
2018-03-21T12:25:28.943Z,81.40
2018-03-21T12:27:56.475Z,81.60
2018-03-21T12:30:24.769Z,80.90
2018-03-21T12:32:52.442Z,80.90
2018-03-21T12:35:19.980Z,80.80
2018-03-21T12:37:47.561Z,80.30
2018-03-21T12:40:15.189Z,79.80
2018-03-21T12:42:43.542Z,79.80
2018-03-21T12:45:11.082Z,79.60
2018-03-21T12:47:38.598Z,79.30
2018-03-21T12:50:07.013Z,78.70
2018-03-21T12:52:34.578Z,78.70
2018-03-21T12:55:02.329Z,78.80
2018-03-21T12:57:29.917Z,78.30
2018-03-21T12:59:57.511Z,78.20
2018-03-21T13:02:25.844Z,78.50
2018-03-21T13:04:53.408Z,78.50
2018-03-21T13:07:21.006Z,79.10
2018-03-21T13:09:48.549Z,78.90
2018-03-21T13:12:16.078Z,78.40
2018-03-21T13:14:43.718Z,79.10
2018-03-21T13:17:11.275Z,78.70
2018-03-21T13:19:38.941Z,78.60
2018-03-21T13:22:06.494Z,78.50
2018-03-21T13:24:34.052Z,78.00
2018-03-21T13:27:01.578Z,78.30
2018-03-21T13:29:29.876Z,77.30
2018-03-21T13:31:57.500Z,77.20
2018-03-21T13:34:25.003Z,76.80
2018-03-21T13:36:52.569Z,75.70
2018-03-21T13:39:20.089Z,73.20
2018-03-21T13:41:48.641Z,73.50
2018-03-21T13:44:16.281Z,73.50
2018-03-21T13:46:43.835Z,72.40
2018-03-21T13:49:11.428Z,73.80
2018-03-21T13:51:38.983Z,74.60
2018-03-21T13:54:06.514Z,74.70
2018-03-21T13:56:34.265Z,74.60
2018-03-21T13:59:01.793Z,75.10
2018-03-21T14:01:30.763Z,75.70
2018-03-21T14:03:58.321Z,75.60
2018-03-21T14:06:25.926Z,76.00
2018-03-21T14:08:53.460Z,75.80
2018-03-21T14:11:21.744Z,76.10
2018-03-21T14:13:50.051Z,76.50
2018-03-21T14:16:17.671Z,76.40
2018-03-21T14:18:45.220Z,76.30
2018-03-21T14:21:12.745Z,76.40
2018-03-21T14:23:40.276Z,76.30
2018-03-21T14:26:07.808Z,76.90
2018-03-21T14:28:36.122Z,76.90
2018-03-21T14:31:03.716Z,76.90
2018-03-21T14:33:31.428Z,77.20
2018-03-21T14:35:59.005Z,77.80
2018-03-21T14:38:26.545Z,77.90
2018-03-21T14:40:54.109Z,77.60
2018-03-21T14:43:21.647Z,77.50
2018-03-21T14:45:49.971Z,77.20
2018-03-21T14:48:17.792Z,77.20
2018-03-21T14:50:46.120Z,77.30
2018-03-21T14:53:13.664Z,77.20
2018-03-21T14:55:41.202Z,76.80
2018-03-21T14:58:08.826Z,77.30
2018-03-21T15:00:36.344Z,77.50
2018-03-21T15:03:03.943Z,77.50
2018-03-21T15:05:31.539Z,77.70
2018-03-21T15:07:59.082Z,77.60
2018-03-21T15:10:27.375Z,78.00
2018-03-21T15:12:54.906Z,78.00
2018-03-21T15:15:22.495Z,78.20
2018-03-21T15:17:50.028Z,78.40
2018-03-21T15:20:17.560Z,78.90
2018-03-21T15:22:45.222Z,79.10
2018-03-21T15:25:12.835Z,79.60
2018-03-21T15:27:40.387Z,79.80
2018-03-21T15:30:07.966Z,80.10
2018-03-21T15:32:35.491Z,80.30
2018-03-21T15:35:03.783Z,80.40
2018-03-21T15:37:31.357Z,80.40
2018-03-21T15:39:58.901Z,80.70
2018-03-21T15:42:26.483Z,80.90
2018-03-21T15:44:54.047Z,80.80
2018-03-21T15:47:21.606Z,80.90
2018-03-21T15:49:49.151Z,81.00
2018-03-21T15:52:16.738Z,81.40
2018-03-21T15:54:44.413Z,81.40
2018-03-21T15:57:12.059Z,81.40
2018-03-21T15:59:39.583Z,81.70
2018-03-21T16:02:07.192Z,81.90
2018-03-21T16:04:34.719Z,82.40
2018-03-21T16:07:02.383Z,82.60
2018-03-21T16:09:29.934Z,82.50
2018-03-21T16:11:57.756Z,82.90
2018-03-21T16:14:25.340Z,83.00
2018-03-21T16:16:52.888Z,83.20
2018-03-21T16:19:20.410Z,83.10
2018-03-21T16:21:48.047Z,83.30
2018-03-21T16:24:15.559Z,83.40
2018-03-21T16:26:43.884Z,83.40
2018-03-21T16:29:11.635Z,83.40
2018-03-21T16:31:39.198Z,83.40
2018-03-21T16:34:06.736Z,83.70
2018-03-21T16:36:34.392Z,84.00
2018-03-21T16:39:02.056Z,83.70
2018-03-21T16:41:29.651Z,84.10
2018-03-21T16:43:57.317Z,84.20
2018-03-21T16:46:24.834Z,84.00
2018-03-21T16:48:52.715Z,83.60
2018-03-21T16:51:20.279Z,83.30
2018-03-21T16:53:47.818Z,82.80
2018-03-21T16:56:15.351Z,82.80
2018-03-21T16:58:43.774Z,82.40
2018-03-21T17:01:11.279Z,82.50
2018-03-21T17:03:38.918Z,82.40
2018-03-21T17:06:06.840Z,82.30
2018-03-21T17:08:35.274Z,81.90
2018-03-21T17:11:02.908Z,82.00
2018-03-21T17:16:04.407Z,81.80
2018-03-21T17:18:31.982Z,81.90
2018-03-21T17:20:59.553Z,81.90
2018-03-21T17:23:27.986Z,81.90
2018-03-21T17:25:55.525Z,81.90
2018-03-21T17:28:23.120Z,82.00
2018-03-21T17:30:50.726Z,82.00
2018-03-21T17:33:18.266Z,81.90
2018-03-21T17:35:46.590Z,82.20
2018-03-21T17:38:14.415Z,82.20
2018-03-21T17:40:42.719Z,82.30
2018-03-21T17:43:10.242Z,82.30
2018-03-21T17:45:37.783Z,82.30
2018-03-21T17:48:05.337Z,82.40
2018-03-21T17:50:32.964Z,82.40
2018-03-21T17:53:00.524Z,82.60
2018-03-21T17:55:28.053Z,82.40
2018-03-21T17:57:55.603Z,82.60
2018-03-21T18:00:23.150Z,82.60
2018-03-21T18:02:51.482Z,82.30
2018-03-21T18:05:19.008Z,82.20
2018-03-21T18:07:46.668Z,82.20
2018-03-21T18:10:14.213Z,82.00
2018-03-21T18:12:43.380Z,82.40
2018-03-21T18:15:10.906Z,82.30
2018-03-21T18:17:38.561Z,82.30
2018-03-21T18:20:06.234Z,82.40
2018-03-21T18:22:33.899Z,82.40
2018-03-21T18:25:01.583Z,82.30
2018-03-21T18:27:29.251Z,82.50
2018-03-21T18:29:58.013Z,82.40
2018-03-21T18:32:25.591Z,82.40
2018-03-21T18:34:53.113Z,82.60
2018-03-21T18:37:20.698Z,82.60
2018-03-21T18:39:48.350Z,82.50
2018-03-21T18:42:15.903Z,82.80
2018-03-21T18:44:43.487Z,82.70
2018-03-21T18:47:11.153Z,83.00
2018-03-21T18:49:38.808Z,82.90
2018-03-21T18:52:06.387Z,82.80
2018-03-21T18:54:33.946Z,82.30
2018-03-21T18:57:01.553Z,82.90
2018-03-21T18:59:29.116Z,82.90
2018-03-21T19:01:56.660Z,83.30
2018-03-21T19:04:24.297Z,83.40
2018-03-21T19:06:52.014Z,83.40
2018-03-21T19:09:19.654Z,83.70
2018-03-21T19:11:47.295Z,83.80
2018-03-21T19:14:14.861Z,84.10
2018-03-21T19:16:42.437Z,85.20
2018-03-21T19:19:10.521Z,84.30
2018-03-21T19:21:38.168Z,84.40
2018-03-21T19:24:06.296Z,84.50
2018-03-21T19:26:33.854Z,85.10
2018-03-21T19:29:01.443Z,85.30
2018-03-21T19:31:29.046Z,85.60
2018-03-21T19:33:57.333Z,85.40
2018-03-21T19:36:24.909Z,85.40
2018-03-21T19:38:53.239Z,86.40
2018-03-21T19:41:20.836Z,86.40
2018-03-21T19:43:48.429Z,86.20
2018-03-21T19:46:16.001Z,86.00
2018-03-21T19:48:43.671Z,86.00
2018-03-21T19:51:11.232Z,86.50
2018-03-21T19:53:38.845Z,86.20
2018-03-21T19:56:07.525Z,86.30
2018-03-21T19:58:35.913Z,86.30
2018-03-21T20:01:03.661Z,86.40
2018-03-21T20:03:31.242Z,86.50
2018-03-21T20:05:59.602Z,86.80
2018-03-21T20:08:27.217Z,87.00
2018-03-21T20:10:54.837Z,86.80
2018-03-21T20:13:22.432Z,86.90
2018-03-21T20:15:50.202Z,87.00
2018-03-21T20:18:18.015Z,87.00
2018-03-21T20:20:45.624Z,87.10
2018-03-21T20:23:13.211Z,87.00
2018-03-21T20:25:40.811Z,86.70
2018-03-21T20:28:08.386Z,86.40
2018-03-21T20:30:36.062Z,86.00
2018-03-21T20:33:03.828Z,85.90
2018-03-21T20:35:31.471Z,85.10
2018-03-21T20:37:59.378Z,84.70
2018-03-21T20:40:27.224Z,84.20
2018-03-21T20:42:54.790Z,83.60
2018-03-21T20:45:23.281Z,83.10
2018-03-21T20:47:50.831Z,83.00
2018-03-21T20:50:18.429Z,82.60
2018-03-21T20:52:45.996Z,82.40
2018-03-21T20:55:13.646Z,82.20
2018-03-21T20:57:41.213Z,82.40
2018-03-21T21:00:09.576Z,82.30
2018-03-21T21:02:37.510Z,82.40
2018-03-21T21:05:05.104Z,82.20
2018-03-21T21:07:33.722Z,82.10
2018-03-21T21:10:01.844Z,81.70
2018-03-21T21:12:29.563Z,80.90
2018-03-21T21:14:57.892Z,80.70
2018-03-21T21:17:25.468Z,80.70
2018-03-21T21:19:54.036Z,80.50
2018-03-21T21:22:22.176Z,80.40
2018-03-21T21:24:49.820Z,80.40
2018-03-21T21:27:18.205Z,80.20
2018-03-21T21:29:45.960Z,80.10
2018-03-21T21:32:13.518Z,80.00
2018-03-21T21:34:41.345Z,80.00
2018-03-21T21:37:10.348Z,80.20
2018-03-21T21:39:38.677Z,80.20
2018-03-21T21:42:06.231Z,80.10
2018-03-21T21:44:34.006Z,80.20
2018-03-21T21:47:01.551Z,80.30
2018-03-21T21:49:29.180Z,80.30
2018-03-21T21:51:57.504Z,80.50
2018-03-21T21:54:25.082Z,80.40
2018-03-21T21:56:52.778Z,80.60
2018-03-21T21:59:21.085Z,80.60
2018-03-21T22:01:48.869Z,80.60
2018-03-21T22:04:16.413Z,80.80
2018-03-21T22:06:44.206Z,80.80
2018-03-21T22:09:11.823Z,80.90
2018-03-21T22:11:39.705Z,81.00
2018-03-21T22:14:07.249Z,81.30
2018-03-21T22:16:34.810Z,81.40
2018-03-21T22:19:02.515Z,81.70
2018-03-21T22:21:30.195Z,81.90
2018-03-21T22:23:58.056Z,81.80
2018-03-21T22:26:25.717Z,81.80
2018-03-21T22:28:53.283Z,81.90
2018-03-21T22:31:20.870Z,81.80
2018-03-21T22:33:48.436Z,81.80
2018-03-21T22:36:15.969Z,81.80
2018-03-21T22:38:43.628Z,81.90
2018-03-21T22:41:11.284Z,81.70
2018-03-21T22:43:38.831Z,81.70
2018-03-21T22:46:06.437Z,82.00
2018-03-21T22:48:34.043Z,81.90
2018-03-21T22:51:01.608Z,81.40
2018-03-21T22:53:29.331Z,81.40
2018-03-21T22:55:56.860Z,81.50
2018-03-21T22:58:25.181Z,81.30
2018-03-21T23:00:52.722Z,81.30
2018-03-21T23:03:20.371Z,81.30
2018-03-21T23:05:48.040Z,81.10
2018-03-21T23:08:15.638Z,80.90
2018-03-21T23:10:44.140Z,80.80
2018-03-21T23:13:11.668Z,80.70
2018-03-21T23:15:39.203Z,80.60
2018-03-21T23:18:06.748Z,80.50
2018-03-21T23:20:34.401Z,80.50
2018-03-21T23:23:01.954Z,80.70
2018-03-21T23:25:30.396Z,80.70
2018-03-21T23:27:58.034Z,80.60
2018-03-21T23:30:25.624Z,80.60
2018-03-21T23:32:53.169Z,80.80
2018-03-21T23:35:20.818Z,80.90
2018-03-21T23:37:48.339Z,81.00
2018-03-21T23:40:16.616Z,81.20
2018-03-21T23:42:44.935Z,81.60
2018-03-21T23:45:12.485Z,81.60
2018-03-21T23:47:40.007Z,81.70
2018-03-21T23:50:08.301Z,82.10
2018-03-21T23:52:35.914Z,82.00
2018-03-21T23:55:03.689Z,82.30
2018-03-21T23:57:31.238Z,82.40
2018-03-21T23:59:58.799Z,82.60
